createdAt,value
2024-05-09T00:03:44.294Z,94342.09
2024-05-09T00:08:47.148Z,94339.66
2024-05-09T00:13:49.532Z,94335.22
2024-05-09T00:18:51.830Z,94333.94
2024-05-09T00:23:54.298Z,94330.31
2024-05-09T00:28:56.565Z,94327.53
2024-05-09T00:33:58.922Z,94323.56
2024-05-09T00:39:01.415Z,94325.91
2024-05-09T00:44:04.642Z,94323.13
2024-05-09T00:49:07.485Z,94329.13
2024-05-09T00:54:10.913Z,94324.28
2024-05-09T00:59:13.446Z,94317.16
2024-05-09T01:04:15.781Z,94309.25
2024-05-09T01:09:18.305Z,94306.75
2024-05-09T01:14:20.717Z,94308.13
2024-05-09T01:19:32.017Z,94302.16
2024-05-09T01:24:34.403Z,94301.19
2024-05-09T01:29:36.596Z,94302.50
2024-05-09T01:34:38.856Z,94295.88
2024-05-09T01:39:41.217Z,94293.56
2024-05-09T01:44:43.757Z,94287.31
2024-05-09T01:49:46.084Z,94272.50
2024-05-09T01:54:48.299Z,94285.13
2024-05-09T01:59:50.652Z,94286.16
2024-05-09T02:04:54.570Z,94283.06
2024-05-09T02:09:56.981Z,94281.38
2024-05-09T02:14:59.352Z,94281.28
2024-05-09T02:20:01.671Z,94286.31
2024-05-09T02:25:04.025Z,94283.53
2024-05-09T02:30:15.196Z,94282.00
2024-05-09T02:35:25.179Z,94276.53
2024-05-09T02:40:35.781Z,94293.31
2024-05-09T02:45:40.797Z,94293.53
2024-05-09T02:50:44.932Z,94292.66
2024-05-09T02:55:47.514Z,94294.91
2024-05-09T03:00:50.059Z,94294.03
2024-05-09T03:05:52.464Z,94303.88
2024-05-09T03:10:54.952Z,94304.56
2024-05-09T03:16:00.019Z,94311.00
2024-05-09T03:21:03.602Z,94305.34
2024-05-09T03:26:11.256Z,94314.06
2024-05-09T03:31:13.596Z,94307.03
2024-05-09T03:36:15.890Z,94301.25
2024-05-09T03:41:21.407Z,94308.66
2024-05-09T03:46:23.928Z,94315.59
2024-05-09T03:51:26.220Z,94309.22
2024-05-09T03:56:28.558Z,94300.19
2024-05-09T04:01:30.878Z,94305.53
2024-05-09T04:06:33.987Z,94305.66
2024-05-09T04:11:36.560Z,94303.66
2024-05-09T04:16:39.024Z,94313.25
2024-05-09T04:21:41.527Z,94308.56
2024-05-09T04:26:44.180Z,94304.44
2024-05-09T04:31:46.656Z,94317.03
2024-05-09T04:36:50.167Z,94324.53
2024-05-09T04:41:52.305Z,94324.41
2024-05-09T04:46:54.686Z,94324.16
2024-05-09T04:51:56.987Z,94329.63
2024-05-09T04:56:59.011Z,94325.84
2024-05-09T05:02:02.634Z,94332.97
2024-05-09T05:07:05.311Z,94329.06
2024-05-09T05:12:28.279Z,94333.63
2024-05-09T05:17:30.746Z,94333.75
2024-05-09T05:22:33.315Z,94336.09
2024-05-09T05:27:35.479Z,94346.25
2024-05-09T05:32:37.889Z,94358.06
2024-05-09T05:37:40.317Z,94356.63
2024-05-09T05:42:42.933Z,94361.66
2024-05-09T05:47:45.528Z,94372.03
2024-05-09T05:52:48.068Z,94365.25
2024-05-09T05:57:50.455Z,94358.00
2024-05-09T06:02:53.291Z,94367.25
2024-05-09T06:07:55.984Z,94371.81
2024-05-09T06:12:58.300Z,94380.63
2024-05-09T06:18:01.051Z,94370.94
2024-05-09T06:23:04.106Z,94367.38
2024-05-09T06:28:06.817Z,94374.84
2024-05-09T06:33:11.796Z,94369.41
2024-05-09T06:38:15.920Z,94370.28
2024-05-09T06:43:19.555Z,94380.78
2024-05-09T06:48:22.933Z,94387.81
2024-05-09T06:53:28.399Z,94381.78
2024-05-09T06:58:30.961Z,94381.56
2024-05-09T07:03:33.410Z,94377.66
2024-05-09T07:08:37.045Z,94378.97
2024-05-09T07:13:39.225Z,94390.25
2024-05-09T07:18:41.847Z,94387.56
2024-05-09T07:23:46.861Z,94382.63
2024-05-09T07:28:49.754Z,94387.63
2024-05-09T07:33:52.635Z,94377.47
2024-05-09T07:38:55.073Z,94375.34
2024-05-09T07:43:57.731Z,94373.88
2024-05-09T07:50:35.820Z,94367.44
2024-05-09T07:54:23.277Z,94367.88
2024-05-09T07:59:25.610Z,94349.13
2024-05-09T08:04:28.215Z,94348.91
2024-05-09T08:09:30.785Z,94345.41
2024-05-09T08:14:33.920Z,94344.34
2024-05-09T08:19:37.866Z,94349.47
2024-05-09T08:24:40.411Z,94347.53
2024-05-09T08:29:43.740Z,94329.94
2024-05-09T08:34:46.059Z,94335.63
2024-05-09T08:39:48.372Z,94337.97
2024-05-09T08:44:52.640Z,94343.88
2024-05-09T08:49:58.675Z,94340.41
2024-05-09T08:55:01.537Z,94330.28
2024-05-09T09:00:10.027Z,94339.03
2024-05-09T09:05:17.523Z,94325.91
2024-05-09T09:10:29.271Z,94325.06
2024-05-09T09:15:34.497Z,94328.34
2024-05-09T09:20:38.114Z,94318.91
2024-05-09T09:25:41.039Z,94329.94
2024-05-09T09:30:43.587Z,94324.00
2024-05-09T09:35:46.556Z,94319.63
2024-05-09T09:40:50.304Z,94314.22
2024-05-09T09:45:55.660Z,94316.78
2024-05-09T09:50:58.518Z,94315.97
2024-05-09T09:56:02.359Z,94309.91
2024-05-09T10:01:05.106Z,94301.31
2024-05-09T10:06:08.084Z,94296.19
2024-05-09T10:11:10.613Z,94293.06
2024-05-09T10:16:13.340Z,94299.81
2024-05-09T10:21:20.175Z,94275.44
2024-05-09T10:26:29.952Z,94274.03
2024-05-09T10:31:33.261Z,94269.06
2024-05-09T10:36:42.029Z,94263.38
2024-05-09T10:41:44.317Z,94263.31
2024-05-09T10:46:47.033Z,94270.88
2024-05-09T10:51:50.644Z,94262.13
2024-05-09T10:56:57.906Z,94245.00
2024-05-09T11:02:04.086Z,94245.53
2024-05-09T11:07:14.702Z,94250.16
2024-05-09T11:12:19.983Z,94239.91
2024-05-09T11:17:23.823Z,94229.06
2024-05-09T11:22:32.399Z,94227.84
2024-05-09T11:27:34.684Z,94213.47
2024-05-09T11:32:37.971Z,94207.00
2024-05-09T11:37:42.967Z,94205.19
2024-05-09T11:42:49.951Z,94202.44
2024-05-09T11:47:54.312Z,94200.06
2024-05-09T11:52:57.279Z,94186.03
2024-05-09T11:57:59.990Z,94175.19
2024-05-09T12:03:05.360Z,94163.31
2024-05-09T12:08:08.647Z,94178.97
2024-05-09T12:13:11.246Z,94172.34
2024-05-09T12:18:14.484Z,94160.81
2024-05-09T12:23:16.862Z,94161.16
2024-05-09T12:28:19.529Z,94159.53
2024-05-09T12:33:22.150Z,94158.53
2024-05-09T12:38:24.469Z,94150.66
2024-05-09T12:43:26.848Z,94146.00
2024-05-09T12:48:30.012Z,94150.59
2024-05-09T12:53:32.514Z,94144.19
2024-05-09T12:58:34.884Z,94140.00
2024-05-09T13:03:41.218Z,94140.81
2024-05-09T13:08:44.345Z,94128.28
2024-05-09T13:13:46.532Z,94128.13
2024-05-09T13:18:49.232Z,94128.91
2024-05-09T13:23:52.853Z,94126.53
2024-05-09T13:28:55.362Z,94124.13
2024-05-09T13:33:57.958Z,94114.00
2024-05-09T13:39:00.924Z,94111.13
2024-05-09T13:44:03.602Z,94114.66
2024-05-09T13:49:07.136Z,94099.50
2024-05-09T13:54:11.231Z,94099.75
2024-05-09T13:59:13.627Z,94094.84
2024-05-09T14:04:16.235Z,94085.09
2024-05-09T14:09:18.720Z,94078.72
2024-05-09T14:14:21.969Z,94070.31
2024-05-09T14:19:24.342Z,94063.94
2024-05-09T14:24:26.900Z,94053.66
2024-05-09T14:29:29.505Z,94050.09
2024-05-09T14:34:31.951Z,94052.34
2024-05-09T14:39:34.206Z,94035.75
2024-05-09T14:44:36.692Z,94044.56
2024-05-09T14:49:39.707Z,94030.63
2024-05-09T14:54:42.705Z,94021.97
2024-05-09T14:59:45.110Z,94016.22
2024-05-09T15:04:47.946Z,94018.44
2024-05-09T15:09:50.603Z,94010.38
2024-05-09T15:14:53.388Z,94012.88
2024-05-09T15:19:55.882Z,94013.38
2024-05-09T15:24:58.518Z,94010.91
2024-05-09T15:30:05.596Z,93999.44
2024-05-09T15:35:10.694Z,94003.28
2024-05-09T15:40:18.500Z,93999.56
2024-05-09T15:45:29.416Z,93982.72
2024-05-09T15:50:37.766Z,93980.13
2024-05-09T15:55:43.440Z,93989.78
2024-05-09T16:08:43.544Z,93985.38
2024-05-09T16:13:46.611Z,93987.22
2024-05-09T16:18:49.003Z,93974.56
2024-05-09T16:23:51.488Z,93976.56
2024-05-09T16:28:53.981Z,93984.47
2024-05-09T16:33:56.186Z,93982.69
2024-05-09T16:38:58.506Z,93974.13
2024-05-09T16:44:03.038Z,93977.88
2024-05-09T16:49:05.972Z,93974.84
2024-05-09T16:54:08.452Z,93971.59
2024-05-09T16:59:11.195Z,93965.25
2024-05-09T17:04:13.763Z,93960.75
2024-05-09T17:09:19.662Z,93970.09
2024-05-09T17:14:22.358Z,93965.09
2024-05-09T17:19:24.862Z,93974.50
2024-05-09T17:24:27.309Z,93963.25
2024-05-09T17:29:30.048Z,93965.16
2024-05-09T17:34:32.380Z,93970.69
2024-05-09T17:39:34.648Z,93974.06
2024-05-09T17:44:37.024Z,93968.44
2024-05-09T17:49:39.344Z,93958.22
2024-05-09T17:54:41.699Z,93961.72
2024-05-09T17:59:44.029Z,93959.47
2024-05-09T18:04:46.602Z,93957.50
2024-05-09T18:09:48.994Z,93975.97
2024-05-09T18:14:54.191Z,93969.13
2024-05-09T18:19:56.820Z,93974.00
2024-05-09T18:24:59.237Z,93978.06
2024-05-09T18:30:01.832Z,93972.78
2024-05-09T18:35:04.513Z,93979.97
2024-05-09T18:40:11.729Z,93983.59
2024-05-09T18:45:14.436Z,93991.19
2024-05-09T18:50:28.418Z,93984.41
2024-05-09T18:55:37.869Z,93983.31
2024-05-09T19:00:43.017Z,93997.72
2024-05-09T19:05:47.785Z,93997.00
2024-05-09T19:10:53.503Z,93998.25
2024-05-09T19:15:56.892Z,93997.56
2024-05-09T19:21:00.048Z,93998.38
2024-05-09T19:26:04.128Z,94000.75
2024-05-09T19:31:06.598Z,94002.41
2024-05-09T19:36:09.319Z,94011.78
2024-05-09T19:41:12.162Z,94019.56
2024-05-09T19:46:14.708Z,94011.44
2024-05-09T19:51:16.953Z,94026.59
2024-05-09T19:56:19.184Z,94022.34
2024-05-09T20:01:21.623Z,94020.78
2024-05-09T20:06:26.356Z,94029.38
2024-05-09T20:11:28.704Z,94035.56
2024-05-09T20:16:31.125Z,94045.66
2024-05-09T20:21:33.474Z,94054.63
2024-05-09T20:26:35.840Z,94054.66
2024-05-09T20:31:39.051Z,94055.84
2024-05-09T20:36:41.214Z,94056.22
2024-05-09T20:41:44.053Z,94065.16
2024-05-09T20:46:46.259Z,94069.03
2024-05-09T20:51:48.944Z,94072.13
2024-05-09T20:56:51.301Z,94071.34
2024-05-09T21:01:53.663Z,94077.56
2024-05-09T21:06:56.253Z,94085.31
2024-05-09T21:11:58.460Z,94079.47
2024-05-09T21:17:00.955Z,94087.56
2024-05-09T21:22:03.248Z,94083.69
2024-05-09T21:27:05.743Z,94073.19
2024-05-09T21:32:08.437Z,94086.69
2024-05-09T21:37:11.037Z,94084.75
2024-05-09T21:42:13.462Z,94077.00
2024-05-09T21:47:15.729Z,94071.94
2024-05-09T21:52:19.543Z,94071.56
2024-05-09T21:57:22.365Z,94070.34
2024-05-09T22:02:25.035Z,94073.84
2024-05-09T22:07:27.342Z,94074.94
2024-05-09T22:12:29.718Z,94077.22
2024-05-09T22:17:33.480Z,94071.44
2024-05-09T22:22:36.150Z,94074.84
2024-05-09T22:27:38.714Z,94070.13
2024-05-09T22:32:41.232Z,94081.31
2024-05-09T22:37:43.655Z,94079.34
2024-05-09T22:42:46.058Z,94073.91
2024-05-09T22:47:48.415Z,94073.09
2024-05-09T22:52:50.658Z,94079.59
2024-05-09T22:57:53.031Z,94077.38
2024-05-09T23:02:55.318Z,94080.66
2024-05-09T23:07:57.718Z,94081.09
2024-05-09T23:13:00.079Z,94083.75
2024-05-09T23:18:02.681Z,94082.09
2024-05-09T23:23:06.030Z,94119.69
2024-05-09T23:28:08.603Z,94118.34
2024-05-09T23:33:12.893Z,94110.69
2024-05-09T23:38:16.005Z,94114.22
2024-05-09T23:43:19.166Z,94120.81
2024-05-09T23:48:21.571Z,94111.59
2024-05-09T23:53:24.012Z,94116.94
2024-05-09T23:58:29.685Z,94107.25
